Time;durP1;ratioP1;P1;durP2;ratioP2;P2;SDS_P1;SDS_P2;PMS_P1;PMS_P2;Temp;Humidity;BMP_temperature;BMP_pressure;BME280_temperature;BME280_humidity;BME280_pressure;Samples;Min_cycle;Max_cycle;Signal;HPM_P1;HPM_P2
2021/07/14 00:00:41;;;;;;;5.47;3.30;;;;;;;16.06;76.27;98368.81;3576951;40;20379;-75
2021/07/14 00:03:09;;;;;;;4.28;3.15;;;;;;;16.03;76.49;98368.47;3576579;40;20041;-75
2021/07/14 00:05:38;;;;;;;3.95;3.40;;;;;;;16.05;76.60;98367.19;3575967;40;20054;-76
2021/07/14 00:08:08;;;;;;;5.30;3.55;;;;;;;15.97;76.70;98366.78;3576778;40;20041;-75
2021/07/14 00:10:36;;;;;;;3.58;3.20;;;;;;;15.91;76.88;98363.19;3576658;40;20081;-75
2021/07/14 00:13:19;;;;;;;3.50;3.20;;;;;;;15.88;76.68;98371.69;3576284;40;20294;-76
2021/07/14 00:24:07;;;;;;;5.35;3.50;;;;;;;16.04;76.22;98364.75;3576279;40;20164;-76
2021/07/14 00:26:35;;;;;;;4.60;3.55;;;;;;;16.03;76.58;98361.28;3576181;40;20401;-76
2021/07/14 00:29:05;;;;;;;6.22;3.80;;;;;;;16.06;76.59;98365.34;3574557;40;20441;-77
2021/07/14 00:31:34;;;;;;;4.38;3.83;;;;;;;16.04;76.37;98362.94;3574114;40;20030;-75
2021/07/14 00:34:02;;;;;;;5.07;3.65;;;;;;;16.00;76.48;98361.78;3575292;40;20033;-75
2021/07/14 00:36:30;;;;;;;4.63;3.60;;;;;;;15.97;76.73;98361.44;3576210;40;20069;-75
2021/07/14 00:38:58;;;;;;;4.22;3.83;;;;;;;15.97;76.33;98358.78;3575547;40;20041;-75
2021/07/14 00:41:26;;;;;;;4.55;4.25;;;;;;;15.99;76.71;98354.00;3575026;40;20091;-75
2021/07/14 00:43:53;;;;;;;4.43;4.05;;;;;;;15.98;76.39;98349.72;3575702;40;20053;-75
2021/07/14 00:46:24;;;;;;;6.07;4.70;;;;;;;15.99;76.16;98346.00;3576789;40;20069;-76
2021/07/14 00:48:57;;;;;;;4.25;3.85;;;;;;;16.01;76.80;98349.25;3576940;40;20044;-76
2021/07/14 00:51:25;;;;;;;5.13;3.72;;;;;;;16.05;76.22;98348.53;3576336;40;20044;-74
2021/07/14 00:53:53;;;;;;;7.03;4.28;;;;;;;16.06;76.06;98341.34;3576221;40;20065;-74
2021/07/14 00:56:21;;;;;;;6.53;4.20;;;;;;;16.03;76.36;98341.81;3576039;40;20042;-74
2021/07/14 00:58:49;;;;;;;4.75;3.67;;;;;;;16.00;76.35;98337.78;3576355;40;20034;-74
2021/07/14 01:01:17;;;;;;;6.10;3.70;;;;;;;15.99;76.41;98340.69;3575894;40;20026;-74
2021/07/14 01:03:53;;;;;;;4.78;3.45;;;;;;;16.05;76.21;98345.88;3575582;40;20382;-75
2021/07/14 01:06:29;;;;;;;4.38;3.08;;;;;;;16.03;76.53;98350.63;3575968;40;20032;-74
2021/07/14 01:09:01;;;;;;;4.25;3.60;;;;;;;16.06;76.38;98341.34;3575886;40;20103;-75
2021/07/14 01:11:34;;;;;;;5.00;3.60;;;;;;;16.07;76.46;98333.09;3576336;40;20030;-76
2021/07/14 01:14:08;;;;;;;4.15;3.72;;;;;;;16.09;76.31;98335.53;3576774;40;20029;-76
2021/07/14 01:16:38;;;;;;;;;;;;;;;16.11;75.92;98341.44;3576562;40;20033;-76
2021/07/14 01:19:29;;;;;;;4.75;3.78;;;;;;;16.07;76.09;98345.63;3576390;40;19982;-76
2021/07/14 01:22:05;;;;;;;4.15;3.75;;;;;;;16.03;76.49;98341.81;3576712;40;20026;-76
2021/07/14 01:24:41;;;;;;;4.22;3.78;;;;;;;16.07;76.72;98332.28;3577613;40;20040;-77
2021/07/14 01:27:14;;;;;;;4.72;3.75;;;;;;;16.13;76.35;98333.22;3576556;40;20032;-76
2021/07/14 01:29:44;;;;;;;4.13;3.72;;;;;;;16.14;76.10;98340.16;3575653;40;20041;-75
2021/07/14 01:32:14;;;;;;;4.53;3.63;;;;;;;16.20;76.42;98333.84;3576414;40;20041;-74
2021/07/14 01:34:46;;;;;;;5.97;3.78;;;;;;;16.25;75.77;98329.44;3575982;40;20450;-74
2021/07/14 01:37:19;;;;;;;4.72;3.70;;;;;;;16.21;76.09;98322.16;3576311;40;20037;-74
2021/07/14 01:39:48;;;;;;;4.78;4.07;;;;;;;16.15;75.89;98310.56;3576744;40;20030;-74
2021/07/14 01:42:20;;;;;;;3.95;3.65;;;;;;;16.12;76.54;98312.91;3574092;40;20079;-76
2021/07/14 01:44:50;;;;;;;3.88;3.55;;;;;;;16.11;76.34;98317.44;3574411;40;20033;-75
2021/07/14 01:47:20;;;;;;;3.78;3.38;;;;;;;16.05;76.53;98321.06;3574865;40;20084;-76
2021/07/14 01:49:50;;;;;;;3.53;3.22;;;;;;;16.06;76.63;98334.16;3575153;40;20099;-76
2021/07/14 01:52:19;;;;;;;8.57;3.30;;;;;;;16.12;76.29;98334.22;3574443;40;20029;-76
2021/07/14 01:54:50;;;;;;;4.00;3.50;;;;;;;16.09;76.45;98331.00;3574483;40;20055;-76
2021/07/14 01:57:22;;;;;;;4.10;3.63;;;;;;;16.12;76.25;98327.03;3574373;40;20025;-75
2021/07/14 01:59:51;;;;;;;4.10;3.17;;;;;;;16.09;76.10;98332.88;3574482;40;20079;-76
2021/07/14 02:02:22;;;;;;;5.95;3.50;;;;;;;16.09;76.14;98347.00;3566935;40;20065;-75
2021/07/14 02:04:51;;;;;;;4.20;3.10;;;;;;;16.12;76.12;98337.72;3574968;40;20042;-76
2021/07/14 02:07:26;;;;;;;6.38;2.95;;;;;;;16.08;76.15;98350.72;3574563;40;20420;-75
2021/07/14 02:09:56;;;;;;;3.20;2.90;;;;;;;16.02;75.97;98349.00;3576028;40;20029;-76
2021/07/14 02:12:28;;;;;;;5.80;2.92;;;;;;;15.96;75.78;98354.47;3576073;40;20041;-75
2021/07/14 02:15:00;;;;;;;4.18;2.75;;;;;;;15.95;76.10;98363.53;3575939;40;20065;-75
2021/07/14 02:17:31;;;;;;;3.72;2.78;;;;;;;15.97;76.42;98372.09;3576078;40;20083;-75
2021/07/14 02:20:05;;;;;;;4.78;2.75;;;;;;;15.95;76.33;98366.19;3575780;40;20066;-75
2021/07/14 02:22:33;;;;;;;3.33;2.97;;;;;;;16.00;76.66;98374.28;3567296;40;20034;-75
2021/07/14 02:25:01;;;;;;;2.70;2.50;;;;;;;16.00;76.44;98369.78;3566115;40;20037;-76
2021/07/14 02:27:30;;;;;;;4.85;2.40;;;;;;;16.01;76.31;98366.06;3575810;40;20057;-75
2021/07/14 02:29:58;;;;;;;2.70;2.50;;;;;;;15.99;76.84;98372.66;3570744;40;20053;-75
2021/07/14 02:32:26;;;;;;;5.25;2.60;;;;;;;15.94;76.73;98360.06;3577077;40;20056;-75
2021/07/14 02:34:56;;;;;;;4.55;2.88;;;;;;;15.97;77.41;98358.78;3577540;40;20070;-75
2021/07/14 02:37:31;;;;;;;4.45;3.08;;;;;;;15.98;77.30;98360.38;3577287;40;20336;-75
2021/07/14 02:40:01;;;;;;;3.83;2.67;;;;;;;16.00;77.48;98356.44;3576578;40;20057;-75
2021/07/14 02:42:32;;;;;;;2.70;2.40;;;;;;;15.98;76.97;98360.38;3577272;40;20091;-75
2021/07/14 02:45:03;;;;;;;5.47;2.97;;;;;;;16.00;77.08;98344.94;3576645;40;20391;-76
2021/07/14 02:47:36;;;;;;;3.25;2.53;;;;;;;16.00;76.65;98334.28;3576750;40;20308;-75
2021/07/14 02:50:06;;;;;;;2.65;2.30;;;;;;;15.92;76.92;98332.84;3577349;40;20403;-75
2021/07/14 02:52:35;;;;;;;2.38;2.17;;;;;;;15.91;77.51;98322.41;3577375;40;20029;-75
2021/07/14 02:55:07;;;;;;;3.63;2.90;;;;;;;15.92;77.30;98316.00;3577003;40;20329;-75
2021/07/14 02:57:38;;;;;;;4.05;2.70;;;;;;;15.90;77.22;98321.59;3576510;40;20117;-76
2021/07/14 03:00:08;;;;;;;7.05;2.53;;;;;;;15.91;77.24;98322.41;3585470;40;20017;-76
2021/07/14 03:02:37;;;;;;;4.07;2.33;;;;;;;15.98;76.88;98323.06;3575091;40;20045;-75
2021/07/14 03:05:06;;;;;;;2.63;2.42;;;;;;;15.99;76.92;98322.00;3577161;40;20094;-75
2021/07/14 03:07:34;;;;;;;2.70;2.50;;;;;;;15.95;76.49;98321.69;3585627;40;20025;-76
2021/07/14 03:10:04;;;;;;;5.10;3.20;;;;;;;15.91;76.74;98319.72;3585789;40;20102;-76
2021/07/14 03:12:32;;;;;;;3.45;2.70;;;;;;;15.90;76.81;98332.25;3585447;40;20044;-76
2021/07/14 03:15:07;;;;;;;3.00;2.70;;;;;;;15.94;76.84;98330.72;3585225;40;20041;-75
2021/07/14 03:17:38;;;;;;;4.43;2.80;;;;;;;15.95;76.96;98337.66;3585047;40;20060;-75
2021/07/14 03:20:09;;;;;;;4.07;2.85;;;;;;;15.98;76.44;98333.72;3585085;40;20068;-75
2021/07/14 03:22:39;;;;;;;3.75;2.65;;;;;;;15.92;76.76;98340.00;3576993;40;20120;-75
2021/07/14 03:25:08;;;;;;;4.63;2.90;;;;;;;15.92;77.02;98332.84;3585532;40;20048;-75
2021/07/14 03:27:35;;;;;;;4.25;2.90;;;;;;;15.95;76.86;98326.19;3585947;40;20025;-76
2021/07/14 03:30:06;;;;;;;5.50;2.80;;;;;;;15.99;76.74;98322.81;3585397;40;20029;-75
2021/07/14 03:32:34;;;;;;;5.03;2.88;;;;;;;16.01;76.88;98328.72;3577173;40;20033;-74
2021/07/14 03:35:03;;;;;;;4.13;3.15;;;;;;;15.98;76.58;98325.72;3575300;40;20054;-74
2021/07/14 03:37:31;;;;;;;4.05;3.13;;;;;;;15.92;76.94;98337.34;3576029;40;20061;-75
2021/07/14 03:40:02;;;;;;;6.30;3.25;;;;;;;15.93;77.11;98334.44;3576387;40;20069;-74
2021/07/14 03:42:30;;;;;;;5.47;3.47;;;;;;;15.96;77.17;98341.13;3576321;40;20061;-75
2021/07/14 03:44:59;;;;;;;5.05;3.25;;;;;;;15.99;77.02;98336.16;3576468;40;20036;-75
2021/07/14 03:47:34;;;;;;;3.75;3.28;;;;;;;16.01;76.76;98335.94;3574946;40;20068;-74
2021/07/14 03:50:05;;;;;;;4.55;3.38;;;;;;;15.99;76.92;98336.16;3574728;40;20055;-74
2021/07/14 03:52:33;;;;;;;3.88;2.72;;;;;;;15.95;76.75;98327.00;3573832;40;20057;-73
2021/07/14 03:55:02;;;;;;;3.80;2.90;;;;;;;15.98;77.10;98323.06;3574975;40;20057;-75
2021/07/14 03:57:30;;;;;;;4.25;2.88;;;;;;;15.97;77.23;98326.78;3574479;40;20040;-75
2021/07/14 03:59:58;;;;;;;6.20;3.05;;;;;;;15.92;77.18;98324.84;3575509;40;20037;-75
2021/07/14 04:02:27;;;;;;;3.80;3.10;;;;;;;15.92;77.42;98332.00;3575495;40;20033;-74
2021/07/14 04:04:56;;;;;;;3.05;2.70;;;;;;;15.89;77.85;98337.84;3575992;40;20038;-75
2021/07/14 04:07:26;;;;;;;4.75;3.38;;;;;;;15.99;77.56;98335.34;3573625;40;20033;-74
2021/07/14 04:09:54;;;;;;;4.30;3.45;;;;;;;16.01;77.38;98344.72;3574822;40;20343;-73
2021/07/14 04:12:22;;;;;;;3.97;3.28;;;;;;;16.06;77.18;98344.00;3573645;40;20033;-77
2021/07/14 04:14:50;;;;;;;6.25;3.80;;;;;;;16.04;77.26;98348.75;3573251;40;20045;-74
2021/07/14 04:17:18;;;;;;;4.13;3.72;;;;;;;16.03;77.45;98355.16;3573656;40;20029;-74
2021/07/14 04:19:46;;;;;;;8.73;3.97;;;;;;;16.01;77.57;98341.25;3573821;40;20099;-75
2021/07/14 04:22:15;;;;;;;4.28;3.83;;;;;;;16.02;77.43;98343.69;3574434;40;20093;-74
2021/07/14 04:24:43;;;;;;;8.43;4.95;;;;;;;16.07;77.40;98346.44;3574322;40;20049;-76
2021/07/14 04:27:11;;;;;;;4.72;3.65;;;;;;;16.04;77.53;98354.09;3574400;40;20036;-76
2021/07/14 04:29:38;;;;;;;7.38;3.53;;;;;;;15.93;77.65;98355.78;3565817;40;20057;-75
2021/07/14 04:32:07;;;;;;;5.10;3.40;;;;;;;15.88;77.82;98341.53;3573922;40;20073;-74
2021/07/14 04:34:35;;;;;;;3.78;3.38;;;;;;;15.89;77.44;98341.31;3564115;40;20039;-75
2021/07/14 04:37:03;;;;;;;6.60;4.78;;;;;;;15.85;77.84;98340.97;3572492;40;20056;-75
2021/07/14 04:39:32;;;;;;;7.50;3.80;;;;;;;15.82;78.13;98346.75;3560857;40;20333;-75
2021/07/14 04:42:00;;;;;;;6.50;3.70;;;;;;;15.87;77.66;98343.38;3561232;40;20103;-74
2021/07/14 04:44:34;;;;;;;6.00;3.47;;;;;;;15.82;77.90;98345.97;3561019;40;20034;-75
2021/07/14 04:47:03;;;;;;;6.40;3.55;;;;;;;15.88;77.84;98341.53;3561219;40;20038;-74
2021/07/14 04:49:31;;;;;;;5.25;3.28;;;;;;;15.84;77.91;98350.03;3555460;40;20105;-75
2021/07/14 04:51:58;;;;;;;4.15;3.60;;;;;;;15.92;78.28;98354.16;3564463;40;20058;-75
2021/07/14 04:54:26;;;;;;;5.03;3.50;;;;;;;15.95;77.80;98352.88;3555664;40;20065;-74
2021/07/14 04:56:55;;;;;;;10.55;4.05;;;;;;;15.98;77.79;98352.41;3564518;40;20077;-74
2021/07/14 04:59:24;;;;;;;4.65;2.97;;;;;;;15.96;77.44;98351.81;3564479;40;20453;-75
2021/07/14 05:01:52;;;;;;;4.75;3.15;;;;;;;15.97;78.28;98356.13;3564631;40;20041;-75
2021/07/14 05:04:20;;;;;;;3.50;2.75;;;;;;;15.92;78.12;98358.66;3556111;40;20458;-76
2021/07/14 05:06:47;;;;;;;3.30;3.00;;;;;;;15.94;78.05;98359.25;3556612;40;20456;-76
2021/07/14 05:09:16;;;;;;;6.97;3.35;;;;;;;15.97;78.54;98353.44;3564674;40;20029;-75
2021/07/14 05:11:44;;;;;;;4.38;3.65;;;;;;;16.05;78.50;98350.41;3574921;40;20037;-75
2021/07/14 05:14:13;;;;;;;8.57;5.32;;;;;;;16.09;78.20;98349.69;3575676;40;20055;-75
2021/07/14 05:16:41;;;;;;;3.55;3.25;;;;;;;16.12;78.16;98351.03;3575936;40;20033;-75
2021/07/14 05:19:09;;;;;;;7.00;3.00;;;;;;;16.16;77.55;98346.84;3576115;40;20065;-76
2021/07/14 05:21:36;;;;;;;4.72;4.15;;;;;;;16.24;77.89;98346.47;3564634;40;20324;-75
2021/07/14 05:24:05;;;;;;;9.40;7.13;;;;;;;16.35;77.78;98350.13;3564196;40;20030;-76
2021/07/14 05:26:33;;;;;;;6.18;3.50;;;;;;;16.40;77.51;98349.41;3564264;40;20092;-75
2021/07/14 05:29:00;;;;;;;6.95;3.28;;;;;;;16.41;76.95;98348.34;3553533;40;20436;-74
2021/07/14 05:31:29;;;;;;;4.30;3.42;;;;;;;16.45;77.21;98355.66;3553926;40;20116;-75
2021/07/14 05:33:57;;;;;;;6.28;3.55;;;;;;;16.48;76.87;98349.81;3553417;40;20050;-75
2021/07/14 05:36:25;;;;;;;4.43;3.25;;;;;;;16.54;76.56;98354.19;3553852;40;20092;-75
2021/07/14 05:38:53;;;;;;;5.10;3.60;;;;;;;16.55;76.85;98342.47;3553357;40;20431;-75
2021/07/14 05:41:20;;;;;;;4.95;3.22;;;;;;;16.59;76.78;98330.25;3553787;40;20055;-74
2021/07/14 05:43:48;;;;;;;5.93;3.80;;;;;;;16.58;76.80;98330.50;3553490;40;20062;-74
2021/07/14 05:46:16;;;;;;;4.05;3.30;;;;;;;16.62;76.22;98334.31;3553960;40;20042;-75
2021/07/14 05:48:45;;;;;;;4.32;3.17;;;;;;;16.58;76.24;98336.63;3554242;40;20108;-75
2021/07/14 05:51:13;;;;;;;5.35;3.40;;;;;;;16.58;76.05;98323.31;3545659;40;20058;-75
2021/07/14 05:53:41;;;;;;;6.13;3.08;;;;;;;16.59;76.06;98324.09;3554380;40;20112;-75
2021/07/14 05:56:09;;;;;;;6.97;3.30;;;;;;;16.62;76.02;98330.81;3564158;40;20494;-74
2021/07/14 05:58:37;;;;;;;6.05;3.58;;;;;;;16.65;76.24;98333.78;3563889;40;20058;-75
2021/07/14 06:01:04;;;;;;;6.15;3.58;;;;;;;16.72;76.01;98337.13;3573564;40;20030;-74
2021/07/14 06:03:32;;;;;;;6.72;4.22;;;;;;;16.71;75.77;98346.19;3575725;40;20271;-75
2021/07/14 06:06:01;;;;;;;8.30;4.03;;;;;;;16.64;76.20;98339.38;3577971;40;20078;-76
2021/07/14 06:08:29;;;;;;;6.05;3.70;;;;;;;16.67;75.73;98349.56;3577828;40;20288;-75
2021/07/14 06:10:57;;;;;;;7.00;3.42;;;;;;;16.71;75.57;98348.03;3578481;40;20079;-76
2021/07/14 06:13:24;;;;;;;4.97;3.05;;;;;;;16.70;75.49;98344.56;3577710;40;20464;-75
2021/07/14 06:15:52;;;;;;;4.05;3.35;;;;;;;16.64;75.68;98336.72;3575947;40;20281;-75
2021/07/14 06:18:20;;;;;;;5.55;3.35;;;;;;;16.62;75.94;98336.97;3574019;40;20030;-75
2021/07/14 06:20:48;;;;;;;5.07;3.45;;;;;;;16.67;76.10;98337.03;3575412;40;20442;-75
2021/07/14 06:23:17;;;;;;;3.17;2.85;;;;;;;16.72;76.07;98337.13;3575593;40;20062;-74
2021/07/14 06:25:45;;;;;;;5.60;3.22;;;;;;;16.77;75.87;98336.41;3575516;40;20061;-76
2021/07/14 06:28:13;;;;;;;3.67;2.70;;;;;;;16.75;75.40;98338.53;3575212;40;20508;-76
2021/07/14 06:30:41;;;;;;;6.47;3.13;;;;;;;16.78;75.68;98333.50;3574534;40;20085;-77
2021/07/14 06:33:10;;;;;;;5.88;3.30;;;;;;;16.83;75.45;98330.91;3573583;40;20034;-76
2021/07/14 06:35:38;;;;;;;5.00;3.80;;;;;;;16.80;75.26;98333.25;3574858;40;20037;-76
2021/07/14 06:38:06;;;;;;;5.90;4.00;;;;;;;16.81;75.45;98334.88;3573192;40;20025;-76
2021/07/14 06:40:37;;;;;;;5.70;3.83;;;;;;;16.77;75.24;98331.06;3574880;40;20057;-76
2021/07/14 06:43:08;;;;;;;5.03;3.88;;;;;;;16.80;75.52;98338.59;3575751;40;20048;-75
2021/07/14 06:45:37;;;;;;;2.88;2.67;;;;;;;16.88;75.41;98334.72;3575244;40;20048;-75
2021/07/14 06:48:05;;;;;;;7.35;6.57;;;;;;;16.99;75.45;98328.47;3574801;40;20032;-76
2021/07/14 06:50:32;;;;;;;5.63;3.30;;;;;;;17.07;74.86;98326.19;3575419;40;20069;-76
2021/07/14 06:53:02;;;;;;;4.60;2.90;;;;;;;17.15;74.35;98330.31;3574353;40;20030;-75
2021/07/14 06:55:30;;;;;;;4.82;3.58;;;;;;;17.22;74.56;98330.91;3584546;40;20025;-76
2021/07/14 06:58:00;;;;;;;3.50;3.15;;;;;;;17.25;74.53;98341.09;3577251;40;20057;-76
2021/07/14 07:00:28;;;;;;;5.20;3.58;;;;;;;17.21;74.37;98331.97;3576696;40;20026;-76
2021/07/14 07:02:56;;;;;;;3.33;3.03;;;;;;;17.27;74.47;98333.66;3575249;40;20042;-76
2021/07/14 07:05:23;;;;;;;5.75;3.53;;;;;;;17.37;73.73;98340.19;3575472;40;20033;-76
2021/07/14 07:07:51;;;;;;;4.72;3.42;;;;;;;17.40;73.92;98347.72;3575307;40;20025;-76
2021/07/14 07:10:19;;;;;;;4.40;3.10;;;;;;;17.38;73.79;98344.47;3574750;40;20073;-75
2021/07/14 07:12:47;;;;;;;3.90;3.60;;;;;;;17.44;73.43;98338.97;3574887;40;20029;-76
2021/07/14 07:15:18;;;;;;;4.78;3.65;;;;;;;17.40;73.77;98345.84;3566389;40;20057;-75
2021/07/14 07:17:46;;;;;;;4.30;3.90;;;;;;;17.36;73.49;98343.94;3574978;40;20032;-76
2021/07/14 07:20:15;;;;;;;3.67;3.38;;;;;;;17.41;73.74;98342.13;3584762;40;20061;-76
2021/07/14 07:22:43;;;;;;;4.82;3.72;;;;;;;17.47;73.34;98353.66;3572280;40;20018;-76
2021/07/14 07:25:13;;;;;;;4.93;3.47;;;;;;;17.41;73.08;98344.78;3573841;40;20046;-76
2021/07/14 07:27:41;;;;;;;4.85;3.55;;;;;;;17.44;72.93;98341.63;3575099;40;20431;-75
2021/07/14 07:30:11;;;;;;;6.07;4.18;;;;;;;17.53;72.86;98347.34;3566456;40;20045;-76
2021/07/14 07:32:40;;;;;;;4.43;4.03;;;;;;;17.56;72.28;98344.19;3575046;40;20153;-75
2021/07/14 07:35:09;;;;;;;5.60;4.43;;;;;;;17.53;72.72;98347.34;3574329;40;20038;-75
2021/07/14 07:37:37;;;;;;;5.07;4.57;;;;;;;17.44;72.77;98346.16;3574273;40;20288;-75
2021/07/14 07:40:06;;;;;;;5.63;4.80;;;;;;;17.40;72.88;98347.72;3574242;40;20049;-76
2021/07/14 07:42:34;;;;;;;4.78;4.28;;;;;;;17.39;72.86;98348.75;3574574;40;20030;-75
2021/07/14 07:45:04;;;;;;;6.95;4.43;;;;;;;17.50;72.59;98340.63;3574570;40;20042;-76
2021/07/14 07:47:32;;;;;;;5.25;3.83;;;;;;;17.48;72.64;98340.09;3574939;40;20026;-76
2021/07/14 07:50:01;;;;;;;9.15;4.03;;;;;;;17.44;72.63;98335.47;3574885;40;20334;-76
2021/07/14 07:52:29;;;;;;;5.05;3.85;;;;;;;17.33;72.61;98338.00;3556563;40;20092;-75
2021/07/14 07:55:00;;;;;;;4.25;3.85;;;;;;;17.34;72.99;98342.28;3573868;40;20076;-76
2021/07/14 07:57:28;;;;;;;4.20;3.80;;;;;;;17.31;72.92;98350.81;3564460;40;20323;-76
2021/07/14 07:59:56;;;;;;;3.72;3.42;;;;;;;17.27;72.81;98352.38;3574769;40;20033;-75
2021/07/14 08:02:24;;;;;;;5.68;4.43;;;;;;;17.31;73.21;98347.34;3576000;40;20045;-75
2021/07/14 08:04:52;;;;;;;4.65;4.20;;;;;;;17.35;73.16;98353.81;3573873;40;20041;-76
2021/07/14 08:07:21;;;;;;;3.88;3.40;;;;;;;17.47;73.07;98351.00;3575121;40;20291;-75
2021/07/14 08:09:49;;;;;;;5.43;3.85;;;;;;;17.49;72.85;98352.38;3575497;40;20034;-76
2021/07/14 08:12:16;;;;;;;3.65;3.35;;;;;;;17.46;72.67;98346.72;3575377;40;20039;-75
2021/07/14 08:14:44;;;;;;;3.67;3.08;;;;;;;17.45;72.62;98348.59;3575702;40;20030;-75
2021/07/14 08:17:12;;;;;;;4.22;3.13;;;;;;;17.44;72.71;98348.84;3575064;40;20033;-76
2021/07/14 08:19:40;;;;;;;3.28;2.75;;;;;;;17.46;72.44;98354.72;3575897;40;20052;-76
2021/07/14 08:22:07;;;;;;;6.05;2.80;;;;;;;17.48;72.33;98358.78;3574849;40;20026;-75
2021/07/14 08:24:36;;;;;;;2.80;2.40;;;;;;;17.53;72.51;98358.03;3573790;40;20049;-76
2021/07/14 08:27:05;;;;;;;3.10;2.90;;;;;;;17.59;72.15;98359.69;3574296;40;20041;-76
2021/07/14 08:29:37;;;;;;;3.65;3.13;;;;;;;17.66;72.08;98354.97;3573786;40;20107;-76
2021/07/14 08:32:05;;;;;;;3.13;2.75;;;;;;;17.70;71.83;98350.75;3573638;40;20163;-76
2021/07/14 08:34:33;;;;;;;2.75;2.53;;;;;;;17.65;71.95;98341.88;3573840;40;20037;-76
2021/07/14 08:37:01;;;;;;;5.15;3.03;;;;;;;17.60;71.90;98345.31;3573234;40;20032;-75
2021/07/14 08:39:29;;;;;;;4.53;2.78;;;;;;;17.70;72.15;98356.09;3572666;40;20073;-73
2021/07/14 08:42:01;;;;;;;4.32;3.15;;;;;;;17.77;72.01;98354.09;3571402;40;20079;-76
2021/07/14 08:44:30;;;;;;;5.80;2.90;;;;;;;17.81;72.05;98344.50;3571853;40;20065;-76
2021/07/14 08:46:59;;;;;;;3.67;2.90;;;;;;;17.83;71.68;98344.25;3572973;40;20029;-76
2021/07/14 08:49:29;;;;;;;2.58;2.35;;;;;;;17.70;71.82;98345.41;3573233;40;20088;-77
2021/07/14 08:51:57;;;;;;;3.30;2.80;;;;;;;17.69;71.89;98345.66;3564588;40;20029;-76
2021/07/14 08:54:25;;;;;;;3.45;2.55;;;;;;;17.72;72.09;98361.22;3573675;40;20054;-76
2021/07/14 08:56:53;;;;;;;4.03;2.25;;;;;;;17.77;72.23;98362.09;3574856;40;20029;-77
2021/07/14 08:59:23;;;;;;;3.20;2.90;;;;;;;17.90;71.85;98355.56;3575300;40;20061;-77
2021/07/14 09:01:51;;;;;;;3.78;2.53;;;;;;;17.96;71.67;98357.25;3575025;40;20062;-77
2021/07/14 09:04:19;;;;;;;3.78;2.42;;;;;;;18.10;71.33;98362.19;3574850;40;20033;-77
2021/07/14 09:06:46;;;;;;;3.28;2.97;;;;;;;18.20;70.57;98364.97;3575480;40;20380;-76
2021/07/14 09:09:14;;;;;;;3.63;2.15;;;;;;;18.16;70.42;98361.97;3574859;40;20053;-76
2021/07/14 09:11:53;;;;;;;2.72;2.53;;;;;;;18.16;70.04;98371.88;3574658;40;20120;-76
2021/07/14 09:14:31;;;;;;;2.45;2.25;;;;;;;18.16;70.27;98371.88;3574862;40;20025;-74
2021/07/14 09:17:00;;;;;;;2.45;2.30;;;;;;;18.19;70.23;98372.19;3575851;40;20045;-75
2021/07/14 09:19:30;;;;;;;3.25;2.05;;;;;;;18.17;70.35;98374.31;3576244;40;20083;-75
2021/07/14 09:21:59;;;;;;;2.78;1.92;;;;;;;18.06;70.07;98370.72;3575200;40;20041;-75
2021/07/14 09:24:31;;;;;;;2.58;2.05;;;;;;;17.98;69.85;98365.81;3576205;40;20034;-76
2021/07/14 09:27:00;;;;;;;5.90;4.40;;;;;;;17.89;70.14;98374.53;3575907;40;20073;-75
2021/07/14 09:29:30;;;;;;;2.42;2.20;;;;;;;17.81;70.46;98381.94;3576057;40;20433;-75
2021/07/14 09:31:57;;;;;;;3.95;1.95;;;;;;;17.77;70.52;98388.03;3575159;40;20061;-75
2021/07/14 09:34:29;;;;;;;6.35;2.50;;;;;;;17.79;70.47;98391.25;3575394;40;20072;-75
2021/07/14 09:37:00;;;;;;;4.82;3.25;;;;;;;17.72;70.82;98394.09;3574163;40;20045;-76
2021/07/14 09:39:34;;;;;;;2.17;1.98;;;;;;;17.72;70.75;98404.78;3574639;40;20050;-76
2021/07/14 09:42:04;;;;;;;2.40;2.20;;;;;;;17.69;70.54;98407.97;3567634;40;20062;-76
2021/07/14 09:44:33;;;;;;;2.97;2.10;;;;;;;17.67;70.23;98418.06;3574351;40;20029;-76
2021/07/14 09:47:13;;;;;;;2.65;2.40;;;;;;;17.68;71.06;98418.91;3575139;40;20049;-76
2021/07/14 09:49:41;;;;;;;2.58;2.38;;;;;;;17.71;71.00;98426.41;3575225;40;20339;-76
2021/07/14 09:52:12;;;;;;;3.45;2.40;;;;;;;17.74;70.72;98426.75;3575821;40;20036;-75
2021/07/14 09:54:40;;;;;;;3.13;2.35;;;;;;;17.67;70.78;98433.31;3575417;40;20041;-75
2021/07/14 09:57:13;;;;;;;3.10;2.25;;;;;;;17.65;71.30;98441.59;3574114;40;20051;-76
2021/07/14 09:59:47;;;;;;;4.68;2.47;;;;;;;17.70;71.24;98438.97;3574162;40;20439;-75
2021/07/14 10:02:16;;;;;;;3.40;2.33;;;;;;;17.56;71.64;98446.53;3574786;40;20057;-75
2021/07/14 10:04:46;;;;;;;2.67;2.30;;;;;;;17.47;71.82;98445.34;3574994;40;20037;-77
2021/07/14 10:07:18;;;;;;;2.72;2.53;;;;;;;17.39;71.55;98452.94;3572813;40;20303;-76
2021/07/14 10:09:47;;;;;;;3.60;2.30;;;;;;;17.26;72.05;98443.41;3572550;40;20391;-76
2021/07/14 10:12:26;;;;;;;2.78;2.20;;;;;;;17.40;72.17;98444.72;3573882;40;20053;-76
2021/07/14 10:14:56;;;;;;;2.38;2.17;;;;;;;17.43;71.49;98444.22;3574199;40;20116;-74
2021/07/14 10:17:40;;;;;;;2.45;2.25;;;;;;;17.46;71.54;98445.59;3574306;40;20033;-75
2021/07/14 10:20:35;;;;;;;3.45;2.40;;;;;;;17.48;71.29;98436.28;3574743;40;20033;-75
2021/07/14 10:23:05;;;;;;;2.85;2.50;;;;;;;17.41;71.78;98430.28;3572561;40;20044;-74
2021/07/14 10:25:34;;;;;;;2.40;2.30;;;;;;;17.37;71.74;98417.66;3574979;40;20077;-75
2021/07/14 10:28:05;;;;;;;7.22;2.72;;;;;;;17.50;71.56;98410.09;3573549;40;20441;-77
2021/07/14 10:30:34;;;;;;;2.78;2.47;;;;;;;17.66;71.59;98404.97;3576030;40;20025;-76
2021/07/14 10:33:02;;;;;;;3.25;2.40;;;;;;;17.78;71.07;98416.38;3575237;40;20062;-75
2021/07/14 10:35:34;;;;;;;2.67;1.95;;;;;;;17.94;70.90;98414.69;3576133;40;20107;-76
2021/07/14 10:38:17;;;;;;;5.85;2.03;;;;;;;18.02;70.41;98417.75;3573713;40;20036;-76
2021/07/14 10:40:46;;;;;;;2.70;1.88;;;;;;;17.98;69.84;98415.81;3573501;40;20395;-75
2021/07/14 10:43:16;;;;;;;3.60;1.90;;;;;;;17.88;70.50;98408.50;3572965;40;20022;-76
2021/07/14 10:45:48;;;;;;;2.00;1.90;;;;;;;17.80;70.67;98415.09;3575541;40;20017;-76
2021/07/14 10:48:19;;;;;;;2.70;2.17;;;;;;;17.73;70.95;98416.28;3576259;40;20367;-75
2021/07/14 10:50:48;;;;;;;2.05;1.90;;;;;;;17.62;70.95;98410.00;3576048;40;20047;-75
2021/07/14 10:53:21;;;;;;;2.30;2.10;;;;;;;17.60;71.32;98417.47;3574920;40;20045;-75
2021/07/14 10:55:53;;;;;;;2.85;1.77;;;;;;;17.56;71.67;98419.00;3575687;40;20041;-76
2021/07/14 10:58:23;;;;;;;3.40;2.20;;;;;;;17.63;71.33;98414.28;3575928;40;20054;-75
2021/07/14 11:00:53;;;;;;;3.55;1.95;;;;;;;17.56;71.67;98421.69;3576141;40;20034;-77
2021/07/14 11:03:43;;;;;;;2.72;2.53;;;;;;;17.61;71.67;98415.59;3576284;40;20033;-75
2021/07/14 11:06:14;;;;;;;4.07;2.42;;;;;;;17.68;71.81;98418.91;3576426;40;20299;-74
2021/07/14 11:08:46;;;;;;;6.60;2.25;;;;;;;17.68;71.50;98421.59;3575853;40;20020;-75
2021/07/14 11:11:15;;;;;;;7.63;3.03;;;;;;;17.60;71.67;98422.00;3575300;40;20041;-76
2021/07/14 11:13:44;;;;;;;2.38;2.03;;;;;;;17.56;71.75;98422.50;3575434;40;20045;-77
2021/07/14 11:16:34;;;;;;;2.90;2.63;;;;;;;17.61;71.74;98427.09;3576427;40;20062;-76
2021/07/14 11:19:06;;;;;;;3.05;2.33;;;;;;;17.51;71.71;98418.91;3576439;40;20030;-76
2021/07/14 11:21:55;;;;;;;4.28;2.53;;;;;;;17.50;72.04;98420.00;3575578;40;20033;-76
2021/07/14 11:25:00;;;;;;;2.72;2.20;;;;;;;17.41;72.13;98422.28;3576484;40;20508;-76
2021/07/14 11:27:59;;;;;;;2.45;2.25;;;;;;;17.43;72.42;98420.19;3576201;40;20306;-76
2021/07/14 11:30:42;;;;;;;3.25;1.92;;;;;;;17.43;73.00;98409.50;3576328;40;20028;-76
2021/07/14 11:33:19;;;;;;;2.67;2.40;;;;;;;17.53;72.93;98411.47;3575328;40;20050;-75
2021/07/14 11:35:53;;;;;;;3.35;2.50;;;;;;;17.47;73.30;98415.97;3575729;40;20053;-74
2021/07/14 11:38:27;;;;;;;2.55;2.20;;;;;;;17.43;73.86;98416.69;3576132;40;20036;-75
2021/07/14 11:40:57;;;;;;;2.83;2.10;;;;;;;17.37;74.11;98415.00;3575394;40;20066;-75
2021/07/14 11:43:38;;;;;;;3.15;2.00;;;;;;;17.41;74.44;98416.13;3575090;40;20026;-75
2021/07/14 11:46:10;;;;;;;2.35;2.08;;;;;;;17.38;74.30;98414.75;3575357;40;20041;-74
2021/07/14 11:48:41;;;;;;;2.78;2.22;;;;;;;17.42;74.53;98415.88;3575346;40;20057;-74
2021/07/14 11:51:20;;;;;;;2.95;2.20;;;;;;;17.34;74.67;98416.28;3564284;40;20026;-74
2021/07/14 11:53:49;;;;;;;3.00;2.05;;;;;;;17.33;74.80;98412.81;3573270;40;20052;-75
2021/07/14 11:56:21;;;;;;;2.22;1.90;;;;;;;17.30;75.25;98432.00;3575205;40;20384;-74